Terminal Aerodrome Forecast
Issued by NWS

Home | Current Version | Previous Version | Text Only | Print | Product List | Glossary On
Versions: 1 2 3 4 5 6 7 8 9 10 11 12
000
FTUS42 KMLB 231100 RRA
TAFSUA
TAF
KSUA 231145Z 2312/2412 14012G18KT P6SM SCT012 BKN018 BKN060
     FM231400 14017G25KT P6SM BKN020
     FM231700 15015G22KT P6SM VCSH BKN030 BKN060
     FM240200 15009KT P6SM BKN035
     FM240600 18006KT P6SM BKN008=

USA.gov is the U.S. government's official web portal to all federal, state and local government web resources and services.